Terminal Aerodrome Forecast
Issued by NWS Central Illinois

Home | Current Version | Previous Version | Text Only | Print | Product List | Glossary On
Versions: 1 2 3 4 5 6 7 8 9 10 11 12 13 14 15 16 17 18 19 20 21 22 23
000
FTUS43 KILX 201222 AAA
TAFSPI
TAF AMD
KSPI 201222Z 2012/2112 13011KT 2SM BR OVC003
     FM201500 14014KT 4SM BR OVC008
     FM201700 15014G22KT P6SM SCT035 BKN200
     FM210200 18013G19KT 4SM -SHRA BR VCTS SCT015 OVC035CB
     FM210900 22006KT 3SM BR VCSH OVC010=

USA.gov is the U.S. government's official web portal to all federal, state and local government web resources and services.